createdAt,value
2022-09-16T00:00:45.974Z,18.60
2022-09-16T00:03:13.402Z,18.70
2022-09-16T00:05:52.160Z,18.70
2022-09-16T00:08:19.880Z,18.70
2022-09-16T00:10:46.624Z,18.80
2022-09-16T00:13:14.190Z,18.80
2022-09-16T00:15:46.853Z,18.70
2022-09-16T00:18:14.794Z,18.70
2022-09-16T00:20:49.964Z,18.80
2022-09-16T00:23:17.922Z,18.70
2022-09-16T00:25:44.642Z,18.80
2022-09-16T00:28:11.367Z,18.80
2022-09-16T00:30:38.115Z,18.80
2022-09-16T00:33:04.820Z,18.70
2022-09-16T00:35:31.516Z,18.70
2022-09-16T00:37:58.286Z,18.80
2022-09-16T00:40:25.058Z,18.80
2022-09-16T00:42:51.830Z,18.80
2022-09-16T00:45:21.602Z,18.80
2022-09-16T00:47:56.040Z,18.80
2022-09-16T00:50:56.150Z,18.70
2022-09-16T00:53:29.510Z,18.70
2022-09-16T00:55:58.665Z,18.70
2022-09-16T00:58:48.811Z,18.70
2022-09-16T01:01:15.634Z,18.60
2022-09-16T01:03:47.057Z,18.60
2022-09-16T01:06:15.083Z,18.50
2022-09-16T01:08:43.563Z,18.50
2022-09-16T01:11:10.345Z,18.50
2022-09-16T01:13:38.492Z,18.50
2022-09-16T01:16:29.813Z,18.50
2022-09-16T01:19:08.127Z,18.40
2022-09-16T01:21:42.311Z,18.40
2022-09-16T01:24:27.478Z,18.30
2022-09-16T01:27:32.013Z,18.20
2022-09-16T01:30:18.828Z,18.20
2022-09-16T01:33:12.466Z,18.20
2022-09-16T01:35:55.841Z,18.20
2022-09-16T01:38:54.382Z,18.20
2022-09-16T01:41:53.244Z,18.20
2022-09-16T01:44:27.106Z,18.10
2022-09-16T01:47:03.180Z,18.00
2022-09-16T01:49:47.587Z,18.00
2022-09-16T01:52:38.262Z,17.90
2022-09-16T01:55:13.844Z,17.90
2022-09-16T01:57:51.226Z,17.90
2022-09-16T02:00:18.287Z,17.80
2022-09-16T02:03:05.260Z,17.90
2022-09-16T02:05:46.040Z,17.90
2022-09-16T02:08:17.672Z,17.90
2022-09-16T02:10:50.165Z,17.80
2022-09-16T02:13:26.852Z,17.90
2022-09-16T02:15:59.665Z,17.90
2022-09-16T02:18:33.406Z,17.90
2022-09-16T02:21:03.768Z,18.00
2022-09-16T02:23:48.300Z,17.90
2022-09-16T02:26:20.999Z,18.00
2022-09-16T02:28:51.367Z,18.00
2022-09-16T02:31:23.697Z,18.00
2022-09-16T02:33:59.127Z,18.00
2022-09-16T02:36:28.120Z,18.00
2022-09-16T02:39:08.403Z,18.00
2022-09-16T02:41:38.113Z,18.00
2022-09-16T02:44:05.615Z,18.00
2022-09-16T02:47:11.017Z,18.00
2022-09-16T02:49:57.999Z,17.90
2022-09-16T02:52:44.499Z,17.90
2022-09-16T02:55:22.202Z,17.90
2022-09-16T02:57:49.972Z,17.90
2022-09-16T03:00:17.248Z,17.90
2022-09-16T03:02:44.651Z,17.90
2022-09-16T03:05:11.434Z,17.90
2022-09-16T03:07:41.211Z,17.90
2022-09-16T03:10:13.132Z,17.90
2022-09-16T03:13:23.360Z,17.90
2022-09-16T03:16:13.061Z,18.00
2022-09-16T03:19:24.222Z,18.00
2022-09-16T03:22:17.564Z,18.00
2022-09-16T03:24:59.779Z,17.90
2022-09-16T03:27:34.235Z,18.00
2022-09-16T03:30:07.288Z,17.90
2022-09-16T03:32:44.514Z,17.90
2022-09-16T03:35:21.665Z,17.90
2022-09-16T03:37:49.820Z,17.90
2022-09-16T03:40:19.222Z,17.90
2022-09-16T03:42:46.471Z,17.90
2022-09-16T03:45:22.230Z,17.90
2022-09-16T03:47:51.243Z,17.90
2022-09-16T03:50:19.300Z,18.00
2022-09-16T03:52:46.325Z,18.00
2022-09-16T03:55:13.549Z,18.00
2022-09-16T03:57:40.459Z,18.00
2022-09-16T04:00:08.689Z,18.00
2022-09-16T04:02:41.764Z,17.90
2022-09-16T04:05:09.058Z,17.90
2022-09-16T04:07:36.597Z,17.90
2022-09-16T04:10:05.455Z,17.80
2022-09-16T04:12:32.384Z,17.90
2022-09-16T04:15:00.852Z,17.90
2022-09-16T04:17:30.988Z,17.90
2022-09-16T04:19:57.711Z,17.90
2022-09-16T04:22:24.464Z,17.90
2022-09-16T04:24:51.368Z,17.80
2022-09-16T04:27:18.132Z,17.90
2022-09-16T04:29:44.804Z,17.80
2022-09-16T04:32:11.483Z,17.70
2022-09-16T04:34:38.190Z,17.70
2022-09-16T04:37:04.993Z,17.70
2022-09-16T04:39:31.717Z,17.70
2022-09-16T04:41:59.884Z,17.70
2022-09-16T04:44:27.107Z,17.70
2022-09-16T04:46:54.076Z,17.70
2022-09-16T04:49:20.772Z,17.60
2022-09-16T04:51:47.529Z,17.60
2022-09-16T04:54:14.422Z,17.50
2022-09-16T04:56:41.092Z,17.50
2022-09-16T04:59:07.975Z,17.50
2022-09-16T05:01:37.983Z,17.50
2022-09-16T05:04:07.460Z,17.50
2022-09-16T05:06:37.296Z,17.50
2022-09-16T05:09:04.294Z,17.50
2022-09-16T05:11:36.773Z,17.40
2022-09-16T05:14:05.167Z,17.40
2022-09-16T05:16:32.875Z,17.40
2022-09-16T05:19:03.680Z,17.40
2022-09-16T05:21:32.277Z,17.40
2022-09-16T05:24:04.074Z,17.40
2022-09-16T05:26:32.560Z,17.40
2022-09-16T05:29:07.921Z,17.40
2022-09-16T05:31:38.496Z,17.50
2022-09-16T05:34:28.614Z,17.50
2022-09-16T05:36:56.309Z,17.60
2022-09-16T05:39:25.262Z,17.50
2022-09-16T05:42:00.203Z,17.50
2022-09-16T05:44:28.033Z,17.60
2022-09-16T05:46:54.927Z,17.60
2022-09-16T05:49:23.704Z,17.60
2022-09-16T05:51:51.409Z,17.60
2022-09-16T05:54:19.264Z,17.50
2022-09-16T05:56:47.354Z,17.50
2022-09-16T05:59:15.453Z,17.40
2022-09-16T06:01:42.754Z,17.40
2022-09-16T06:04:13.986Z,17.40
2022-09-16T06:06:45.945Z,17.40
2022-09-16T06:09:14.163Z,17.30
2022-09-16T06:11:43.557Z,17.30
2022-09-16T06:14:11.931Z,17.30
2022-09-16T06:16:39.260Z,17.30
2022-09-16T06:19:10.459Z,17.30
2022-09-16T06:21:38.124Z,17.30
2022-09-16T06:24:08.650Z,17.30
2022-09-16T06:26:37.333Z,17.30
2022-09-16T06:29:05.732Z,17.30
2022-09-16T06:31:33.553Z,17.30
2022-09-16T06:34:00.376Z,17.40
2022-09-16T06:36:33.508Z,17.40
2022-09-16T06:39:00.306Z,17.50
2022-09-16T06:41:27.212Z,17.60
2022-09-16T06:43:54.178Z,17.60
2022-09-16T06:46:26.986Z,17.80
2022-09-16T06:49:04.317Z,17.80
2022-09-16T06:51:32.951Z,17.80
2022-09-16T06:54:02.578Z,17.80
2022-09-16T06:56:29.372Z,17.80
2022-09-16T06:58:57.327Z,18.00
2022-09-16T07:01:29.588Z,18.20
2022-09-16T07:03:58.320Z,18.40
2022-09-16T07:06:57.390Z,18.60
2022-09-16T07:09:16.279Z,18.70
2022-09-16T07:11:42.997Z,18.80
2022-09-16T07:14:09.762Z,19.00
2022-09-16T07:16:36.725Z,19.10
2022-09-16T07:19:04.381Z,19.00
2022-09-16T07:21:31.637Z,19.10
2022-09-16T07:24:00.777Z,19.10
2022-09-16T07:26:29.919Z,19.30
2022-09-16T07:28:59.789Z,19.60
2022-09-16T07:31:29.054Z,19.90
2022-09-16T07:34:01.289Z,20.40
2022-09-16T07:36:33.642Z,20.80
2022-09-16T07:39:00.480Z,21.20
2022-09-16T07:41:30.143Z,21.50
2022-09-16T07:43:59.261Z,21.70
2022-09-16T07:46:32.913Z,21.70
2022-09-16T07:49:01.564Z,21.60
2022-09-16T07:51:29.460Z,21.50
2022-09-16T07:54:02.274Z,21.40
2022-09-16T07:56:30.968Z,21.30
2022-09-16T07:58:57.831Z,21.30
2022-09-16T08:01:24.988Z,21.20
2022-09-16T08:03:52.366Z,21.30
2022-09-16T08:06:24.097Z,21.50
2022-09-16T08:08:55.703Z,21.80
2022-09-16T08:11:23.168Z,21.80
2022-09-16T08:13:50.308Z,21.60
2022-09-16T08:16:19.669Z,21.40
2022-09-16T08:18:49.817Z,21.30
2022-09-16T08:21:19.954Z,21.30
2022-09-16T08:23:47.159Z,21.00
2022-09-16T08:26:15.997Z,20.80
2022-09-16T08:28:57.453Z,20.50
2022-09-16T08:31:31.199Z,20.40
2022-09-16T08:33:57.973Z,20.30
2022-09-16T08:36:25.885Z,20.30
2022-09-16T08:38:55.811Z,20.30
2022-09-16T08:41:25.552Z,20.50
2022-09-16T08:44:29.423Z,20.60
2022-09-16T08:47:02.804Z,20.60
2022-09-16T08:49:43.910Z,20.70
2022-09-16T08:52:36.570Z,20.80
2022-09-16T08:55:09.965Z,20.90
2022-09-16T08:57:41.848Z,21.20
2022-09-16T09:00:15.909Z,21.50
2022-09-16T09:03:05.197Z,21.60
2022-09-16T09:05:47.133Z,21.70
2022-09-16T09:08:36.062Z,21.90
2022-09-16T09:11:25.441Z,22.10
2022-09-16T09:14:01.479Z,22.30
2022-09-16T09:16:28.212Z,22.60
2022-09-16T09:19:13.966Z,22.90
2022-09-16T09:21:58.956Z,23.30
2022-09-16T09:25:06.523Z,23.40
2022-09-16T09:27:41.872Z,23.00
2022-09-16T09:30:21.428Z,22.60
2022-09-16T09:33:44.870Z,22.10
2022-09-16T09:36:25.368Z,21.70
2022-09-16T09:39:17.186Z,21.60
2022-09-16T09:41:51.052Z,21.40
2022-09-16T09:44:32.668Z,21.50
2022-09-16T09:47:04.700Z,21.70
2022-09-16T09:49:41.137Z,22.10
2022-09-16T09:52:26.391Z,22.40
2022-09-16T09:54:54.162Z,23.00
2022-09-16T09:57:26.676Z,23.30
2022-09-16T10:00:14.461Z,23.50
2022-09-16T10:02:48.842Z,23.40
2022-09-16T10:05:24.253Z,23.30
2022-09-16T10:07:55.134Z,23.30
2022-09-16T10:10:25.020Z,23.20
2022-09-16T10:12:52.103Z,23.30
2022-09-16T10:15:37.475Z,23.50
2022-09-16T10:18:14.218Z,23.70
2022-09-16T10:20:44.655Z,23.80
2022-09-16T10:23:14.962Z,23.70
2022-09-16T10:25:42.940Z,23.40
2022-09-16T10:28:25.344Z,23.10
2022-09-16T10:30:55.088Z,22.80
2022-09-16T10:33:28.999Z,22.40
2022-09-16T10:36:02.731Z,21.70
2022-09-16T10:38:42.424Z,21.20
2022-09-16T10:41:19.707Z,20.80
2022-09-16T10:43:53.023Z,20.60
2022-09-16T10:46:20.108Z,20.50
2022-09-16T10:48:49.417Z,20.80
2022-09-16T10:51:26.400Z,21.40
2022-09-16T10:53:57.158Z,21.50
2022-09-16T10:56:29.432Z,21.60
2022-09-16T10:59:10.596Z,21.40
2022-09-16T11:01:57.085Z,21.30
2022-09-16T11:04:57.407Z,21.10
2022-09-16T11:07:31.766Z,20.90
2022-09-16T11:10:32.376Z,20.90
2022-09-16T11:13:17.677Z,20.80
2022-09-16T11:16:02.627Z,20.70
2022-09-16T11:18:55.928Z,20.50
2022-09-16T11:21:44.481Z,20.40
2022-09-16T11:24:24.284Z,20.40
2022-09-16T11:27:29.333Z,21.70
2022-09-16T11:30:14.397Z,25.10
2022-09-16T11:33:10.931Z,28.60
2022-09-16T11:36:26.355Z,29.70
2022-09-16T11:39:11.141Z,28.80
2022-09-16T11:41:56.507Z,27.30
2022-09-16T11:44:26.119Z,26.00
2022-09-16T11:47:30.679Z,25.20
2022-09-16T11:50:07.168Z,24.40
2022-09-16T11:52:36.701Z,23.60
2022-09-16T11:55:22.628Z,23.00
2022-09-16T11:57:58.868Z,22.40
2022-09-16T12:00:25.673Z,21.90
2022-09-16T12:03:05.453Z,21.50
2022-09-16T12:05:35.200Z,21.30
2022-09-16T12:08:12.926Z,22.20
2022-09-16T12:10:54.034Z,25.30
2022-09-16T12:13:25.972Z,28.10
2022-09-16T12:16:06.583Z,30.10
2022-09-16T12:18:39.280Z,30.20
2022-09-16T12:21:14.441Z,30.80
2022-09-16T12:23:45.820Z,31.30
2022-09-16T12:26:26.497Z,32.30
2022-09-16T12:29:03.503Z,33.00
2022-09-16T12:31:45.396Z,33.40
2022-09-16T12:34:20.641Z,33.40
2022-09-16T12:36:54.521Z,33.20
2022-09-16T12:39:21.247Z,32.90
2022-09-16T12:42:22.324Z,31.40
2022-09-16T12:45:24.417Z,30.20
2022-09-16T12:48:15.580Z,28.70
2022-09-16T12:51:08.730Z,27.20
2022-09-16T12:54:02.639Z,25.70
2022-09-16T12:56:50.988Z,24.50
2022-09-16T12:59:55.220Z,23.70
2022-09-16T13:02:28.276Z,22.80
2022-09-16T13:05:01.049Z,22.30
2022-09-16T13:07:35.429Z,22.00
2022-09-16T13:10:15.748Z,21.80
2022-09-16T13:12:49.513Z,21.60
2022-09-16T13:15:29.645Z,21.50
2022-09-16T13:18:09.033Z,21.40
2022-09-16T13:20:48.787Z,21.30
2022-09-16T13:23:23.751Z,21.20
2022-09-16T13:25:56.958Z,21.70
2022-09-16T13:28:33.268Z,23.20
2022-09-16T13:31:16.539Z,24.40
2022-09-16T13:33:56.900Z,25.40
2022-09-16T13:36:23.789Z,25.80
2022-09-16T13:38:53.223Z,25.50
2022-09-16T13:41:42.089Z,24.80
2022-09-16T13:44:33.810Z,24.10
2022-09-16T13:47:09.616Z,24.00
2022-09-16T13:49:51.710Z,24.20
2022-09-16T13:52:29.683Z,24.50
2022-09-16T13:55:10.984Z,25.10
2022-09-16T13:58:02.735Z,25.40
2022-09-16T14:00:58.567Z,24.80
2022-09-16T14:03:53.392Z,24.50
2022-09-16T14:06:29.556Z,24.10
2022-09-16T14:09:26.165Z,23.80
2022-09-16T14:12:15.427Z,23.50
2022-09-16T14:14:47.558Z,23.00
2022-09-16T14:17:19.358Z,22.90
2022-09-16T14:19:48.044Z,22.70
2022-09-16T14:22:17.479Z,22.50
2022-09-16T14:24:45.930Z,22.40
2022-09-16T14:27:43.632Z,22.20
2022-09-16T14:30:17.173Z,21.90
2022-09-16T14:32:46.100Z,21.80
2022-09-16T14:35:18.552Z,21.50
2022-09-16T14:37:47.869Z,21.20
2022-09-16T14:40:17.828Z,21.00
2022-09-16T14:42:53.414Z,20.80
2022-09-16T14:45:20.671Z,20.70
2022-09-16T14:47:52.909Z,20.70
2022-09-16T14:50:30.309Z,20.80
2022-09-16T14:53:02.628Z,21.00
2022-09-16T14:55:31.930Z,21.10
2022-09-16T14:57:59.717Z,21.10
2022-09-16T15:00:38.419Z,21.10
2022-09-16T15:03:14.787Z,21.00
2022-09-16T15:05:44.832Z,21.00
2022-09-16T15:08:27.513Z,21.00
2022-09-16T15:10:58.030Z,21.00
2022-09-16T15:13:28.518Z,20.80
2022-09-16T15:16:05.078Z,20.80
2022-09-16T15:18:37.487Z,20.70
2022-09-16T15:21:25.952Z,20.60
2022-09-16T15:23:56.064Z,20.60
2022-09-16T15:26:31.399Z,20.60
2022-09-16T15:29:04.450Z,20.60
2022-09-16T15:31:40.694Z,20.60
2022-09-16T15:34:21.651Z,20.60
2022-09-16T15:36:53.307Z,20.60
2022-09-16T15:39:39.691Z,20.50
2022-09-16T15:42:24.001Z,20.50
2022-09-16T15:44:52.635Z,20.50
2022-09-16T15:47:21.196Z,20.40
2022-09-16T15:50:15.518Z,20.30
2022-09-16T15:53:01.152Z,20.20
2022-09-16T15:55:52.583Z,20.20
2022-09-16T15:58:25.185Z,20.10
2022-09-16T16:01:23.907Z,20.10
2022-09-16T16:04:00.508Z,20.00
2022-09-16T16:06:54.329Z,20.00
2022-09-16T16:09:27.380Z,19.90
2022-09-16T16:11:55.968Z,19.90
2022-09-16T16:14:24.035Z,19.90
2022-09-16T16:17:12.160Z,19.90
2022-09-16T16:19:44.482Z,19.90
2022-09-16T16:22:12.290Z,19.90
2022-09-16T16:24:39.356Z,19.90
2022-09-16T16:27:06.864Z,19.90
2022-09-16T16:29:33.731Z,19.90
2022-09-16T16:32:09.697Z,19.90
2022-09-16T16:34:41.912Z,19.80
2022-09-16T16:37:19.165Z,19.80
2022-09-16T16:39:55.100Z,19.80
2022-09-16T16:42:23.080Z,19.80
2022-09-16T16:44:50.040Z,19.80
2022-09-16T16:47:17.096Z,19.70
2022-09-16T16:49:48.277Z,19.70
2022-09-16T16:52:18.084Z,19.60
2022-09-16T16:54:45.748Z,19.60
2022-09-16T16:57:12.664Z,19.50
2022-09-16T16:59:39.389Z,19.50
2022-09-16T17:02:06.335Z,19.40
2022-09-16T17:04:33.109Z,19.30
2022-09-16T17:07:23.995Z,19.20
2022-09-16T17:09:46.622Z,19.10
2022-09-16T17:12:13.364Z,19.20
2022-09-16T17:14:42.046Z,19.10
2022-09-16T17:17:08.751Z,19.10
2022-09-16T17:19:35.549Z,19.10
2022-09-16T17:22:02.333Z,19.00
2022-09-16T17:24:29.113Z,19.00
2022-09-16T17:26:55.873Z,19.00
2022-09-16T17:29:22.625Z,18.90
2022-09-16T17:31:49.312Z,18.80
2022-09-16T17:34:16.516Z,18.80
2022-09-16T17:36:45.559Z,18.80
2022-09-16T17:39:18.827Z,18.80
2022-09-16T17:41:48.616Z,18.70
2022-09-16T17:44:17.041Z,18.60
2022-09-16T17:46:44.621Z,18.60
2022-09-16T17:49:20.177Z,18.50
2022-09-16T17:51:47.392Z,18.50
2022-09-16T17:54:14.408Z,18.30
2022-09-16T17:56:42.837Z,18.20
2022-09-16T17:59:10.936Z,18.10
2022-09-16T18:01:37.743Z,18.10
2022-09-16T18:04:04.727Z,18.30
2022-09-16T18:06:35.853Z,18.20
2022-09-16T18:09:09.299Z,18.20
2022-09-16T18:11:39.445Z,18.20
2022-09-16T18:14:19.123Z,18.20
2022-09-16T18:16:52.375Z,18.20
2022-09-16T18:19:28.974Z,18.10
2022-09-16T18:21:55.811Z,18.00
2022-09-16T18:24:22.545Z,18.00
2022-09-16T18:26:49.443Z,18.00
2022-09-16T18:29:16.466Z,18.00
2022-09-16T18:31:48.126Z,17.90
2022-09-16T18:34:16.237Z,17.90
2022-09-16T18:36:43.090Z,17.90
2022-09-16T18:39:15.535Z,17.90
2022-09-16T18:41:44.829Z,17.90
2022-09-16T18:44:20.515Z,17.90
2022-09-16T18:46:47.847Z,17.90
2022-09-16T18:49:16.364Z,17.90
2022-09-16T18:51:51.733Z,17.90
2022-09-16T18:54:24.734Z,18.00
2022-09-16T18:56:52.728Z,18.00
2022-09-16T18:59:23.467Z,18.00
2022-09-16T19:01:52.989Z,18.10
2022-09-16T19:04:22.556Z,18.00
2022-09-16T19:06:51.599Z,18.00
2022-09-16T19:09:21.590Z,18.00
2022-09-16T19:11:49.556Z,18.00
2022-09-16T19:14:16.753Z,18.00
2022-09-16T19:16:45.227Z,18.00
2022-09-16T19:19:14.692Z,18.00
2022-09-16T19:21:42.277Z,17.90
2022-09-16T19:24:14.735Z,17.90
2022-09-16T19:26:43.051Z,18.00
2022-09-16T19:29:10.619Z,18.00
2022-09-16T19:31:39.181Z,17.90
2022-09-16T19:34:06.719Z,17.90
2022-09-16T19:36:34.953Z,17.90
2022-09-16T19:39:02.209Z,17.80
2022-09-16T19:41:31.475Z,17.80
2022-09-16T19:44:01.010Z,17.80
2022-09-16T19:46:29.838Z,17.70
2022-09-16T19:48:57.048Z,17.80
2022-09-16T19:51:25.456Z,17.80
2022-09-16T19:53:53.992Z,17.70
2022-09-16T19:56:29.020Z,17.80
2022-09-16T19:58:55.965Z,17.70
2022-09-16T20:01:25.571Z,17.70
2022-09-16T20:03:52.879Z,17.60
2022-09-16T20:06:25.324Z,17.60
2022-09-16T20:08:59.749Z,17.50
2022-09-16T20:11:29.173Z,17.60
2022-09-16T20:13:59.113Z,17.50
2022-09-16T20:16:35.825Z,17.60
2022-09-16T20:19:04.510Z,17.60
2022-09-16T20:21:33.118Z,17.60
2022-09-16T20:24:00.337Z,17.60
2022-09-16T20:26:27.832Z,17.60
2022-09-16T20:28:55.885Z,17.60
2022-09-16T20:31:25.735Z,17.60
2022-09-16T20:33:53.490Z,17.60
2022-09-16T20:36:22.712Z,17.60
2022-09-16T20:38:50.300Z,17.60
2022-09-16T20:41:20.384Z,17.60
2022-09-16T20:43:47.924Z,17.60
2022-09-16T20:46:23.129Z,17.60
2022-09-16T20:48:54.431Z,17.60
2022-09-16T20:51:23.733Z,17.60
2022-09-16T20:53:52.924Z,17.60
2022-09-16T20:56:19.956Z,17.60
2022-09-16T20:58:47.229Z,17.60
2022-09-16T21:01:16.730Z,17.60
2022-09-16T21:03:44.972Z,17.70
2022-09-16T21:06:17.153Z,17.70
2022-09-16T21:08:44.664Z,17.70
2022-09-16T21:11:19.561Z,17.70
2022-09-16T21:13:53.884Z,17.60
2022-09-16T21:16:22.067Z,17.70
2022-09-16T21:18:52.969Z,17.70
2022-09-16T21:21:20.840Z,17.70
2022-09-16T21:23:52.203Z,17.70
2022-09-16T21:26:31.232Z,17.70
2022-09-16T21:28:58.948Z,17.70
2022-09-16T21:31:28.266Z,17.70
2022-09-16T21:33:56.749Z,17.60
2022-09-16T21:36:25.034Z,17.70
2022-09-16T21:38:52.056Z,17.60
2022-09-16T21:41:21.299Z,17.60
2022-09-16T21:43:55.577Z,17.60
2022-09-16T21:46:28.137Z,17.50
2022-09-16T21:49:00.120Z,17.50
2022-09-16T21:51:28.234Z,17.50
2022-09-16T21:53:55.336Z,17.60
2022-09-16T21:56:23.417Z,17.60
2022-09-16T21:58:54.167Z,17.60
2022-09-16T22:01:23.486Z,17.50
2022-09-16T22:04:02.139Z,17.60
2022-09-16T22:06:29.468Z,17.50
2022-09-16T22:08:59.003Z,17.60
2022-09-16T22:11:27.563Z,17.50
2022-09-16T22:13:56.087Z,17.50
2022-09-16T22:16:31.202Z,17.50
2022-09-16T22:19:04.155Z,17.50
2022-09-16T22:21:33.471Z,17.50
2022-09-16T22:24:01.363Z,17.50
2022-09-16T22:26:29.571Z,17.40
2022-09-16T22:28:56.670Z,17.40
2022-09-16T22:31:29.198Z,17.30
2022-09-16T22:33:58.502Z,17.40
2022-09-16T22:36:27.424Z,17.30
2022-09-16T22:38:56.132Z,17.30
2022-09-16T22:41:25.084Z,17.20
2022-09-16T22:43:53.405Z,17.20
2022-09-16T22:46:26.706Z,17.20
2022-09-16T22:48:55.242Z,17.20
2022-09-16T22:51:22.076Z,17.20
2022-09-16T22:53:48.829Z,17.20
2022-09-16T22:56:21.060Z,17.20
2022-09-16T22:58:52.736Z,17.20
2022-09-16T23:01:23.500Z,17.20
2022-09-16T23:03:56.293Z,17.20
2022-09-16T23:06:24.709Z,17.20
2022-09-16T23:08:52.408Z,17.10
2022-09-16T23:11:22.142Z,17.10
2022-09-16T23:13:52.837Z,17.10
2022-09-16T23:16:23.101Z,17.10
2022-09-16T23:18:50.596Z,17.10
2022-09-16T23:21:20.867Z,17.20
2022-09-16T23:23:59.776Z,17.10
2022-09-16T23:26:29.851Z,17.10
2022-09-16T23:28:59.132Z,17.10
2022-09-16T23:31:28.655Z,17.10
2022-09-16T23:33:56.821Z,17.10
2022-09-16T23:36:25.761Z,17.10
2022-09-16T23:38:53.711Z,17.10
2022-09-16T23:41:22.916Z,17.10
2022-09-16T23:43:50.427Z,17.10
2022-09-16T23:46:19.520Z,17.10
2022-09-16T23:48:47.268Z,17.10
2022-09-16T23:51:14.141Z,17.10
2022-09-16T23:53:42.404Z,17.10
2022-09-16T23:56:11.790Z,17.00
2022-09-16T23:58:39.561Z,17.00
